createdAt,value
2018-03-20T21:49:23.210Z,65.63
2018-03-20T21:50:33.371Z,65.53
2018-03-20T21:51:43.083Z,65.15
2018-03-20T21:52:53.221Z,65.06
2018-03-20T21:54:03.465Z,65.12
2018-03-20T21:55:13.766Z,65.31
2018-03-20T21:56:23.660Z,65.4
2018-03-20T21:57:33.570Z,65.88
2018-03-20T21:58:43.509Z,65.69
2018-03-20T21:59:53.772Z,65.69
2018-03-20T22:01:03.945Z,65.88
2018-03-20T22:02:14.123Z,65.78
2018-03-20T22:03:24.387Z,65.59
2018-03-20T22:04:34.520Z,65.59
2018-03-20T22:05:44.417Z,65.63
2018-03-20T22:06:54.318Z,65.72
2018-03-20T22:08:04.488Z,65.53
2018-03-20T22:09:14.438Z,66
2018-03-20T22:10:24.684Z,65.31
2018-03-20T22:11:34.342Z,65.31
2018-03-20T22:12:44.511Z,65.5
2018-03-20T22:13:54.407Z,65.69
2018-03-20T22:15:04.603Z,65.69
2018-03-20T22:16:14.822Z,65.78
2018-03-20T22:17:25.005Z,65.88
2018-03-20T22:18:34.926Z,65.69
2018-03-20T22:19:44.828Z,65.69
2018-03-20T22:20:54.767Z,65.69
2018-03-20T22:22:04.662Z,65.88
2018-03-20T22:23:14.781Z,65.78
2018-03-20T22:24:24.656Z,65.72
2018-03-20T22:25:34.624Z,65.78
2018-03-20T22:26:44.164Z,65.88
2018-03-20T22:27:54.088Z,65.69
2018-03-20T22:29:04.268Z,65.78
2018-03-20T22:30:14.442Z,65.69
2018-03-20T22:31:24.769Z,65.69
2018-03-20T22:32:34.995Z,65.59
2018-03-20T22:33:45.169Z,65.78
2018-03-20T22:34:55.049Z,65.78
2018-03-20T22:36:05.262Z,65.78
2018-03-20T22:37:14.570Z,65.88
2018-03-20T22:38:24.708Z,65.59
2018-03-20T22:39:34.668Z,65.88
2018-03-20T22:40:44.578Z,65.59
2018-03-20T22:41:54.749Z,66.35
2018-03-20T22:43:04.263Z,65.97
2018-03-20T22:44:14.148Z,66.06
2018-03-20T22:45:24.137Z,65.97
2018-03-20T22:46:34.187Z,66.25
2018-03-20T22:47:43.697Z,66.25
2018-03-20T22:48:54.807Z,66.16
2018-03-20T22:50:04.324Z,65.97
2018-03-20T22:51:14.215Z,66.44
2018-03-20T22:52:25.108Z,66.73
2018-03-20T22:53:35.075Z,66.73
2018-03-20T22:54:44.958Z,66.73
2018-03-20T22:55:55.071Z,66.53
2018-03-20T22:57:05.201Z,66.63
2018-03-20T22:58:15.110Z,66.63
2018-03-20T22:59:25.223Z,66.44
2018-03-20T23:00:35.120Z,66.44
2018-03-20T23:01:45.265Z,66.53
2018-03-20T23:02:55.402Z,66.53
2018-03-20T23:04:05.271Z,67.2
2018-03-20T23:05:15.077Z,66.82
2018-03-20T23:06:25.497Z,67.01
2018-03-20T23:07:35.431Z,67.01
2018-03-20T23:08:45.060Z,67.11
2018-03-20T23:09:55.236Z,67.11
2018-03-20T23:11:05.161Z,67.3
2018-03-20T23:12:14.666Z,67.3
2018-03-20T23:13:24.842Z,67.49
2018-03-20T23:14:34.746Z,67.49
2018-03-20T23:15:44.873Z,67.2
2018-03-20T23:16:54.597Z,67.3
2018-03-20T23:18:03.867Z,67.39
2018-03-20T23:19:13.681Z,67.58
2018-03-20T23:20:23.841Z,67.3
2018-03-20T23:21:33.976Z,67.49
2018-03-20T23:22:43.198Z,67.2
2018-03-20T23:23:53.425Z,67.49
2018-03-20T23:25:03.575Z,67.49
2018-03-20T23:26:13.562Z,67.2
2018-03-20T23:27:23.659Z,67.39
2018-03-20T23:28:33.822Z,67.39
2018-03-20T23:29:43.236Z,67.77
2018-03-20T23:30:53.343Z,67.77
2018-03-20T23:32:03.799Z,67.77
2018-03-20T23:33:13.583Z,67.64
2018-03-20T23:34:23.735Z,68.05
2018-03-20T23:35:33.868Z,67.93
2018-03-20T23:36:43.746Z,67.93
2018-03-20T23:37:53.858Z,67.93
2018-03-20T23:39:04.007Z,68.52
2018-03-20T23:40:14.172Z,68.24
2018-03-20T23:41:24.323Z,68.43
2018-03-20T23:42:34.190Z,68.3
2018-03-20T23:43:44.061Z,68.59
2018-03-20T23:44:54.183Z,68.52
2018-03-20T23:46:04.328Z,69.06
2018-03-20T23:47:14.491Z,68.96
2018-03-20T23:48:24.757Z,68.77
2018-03-20T23:49:35.007Z,69.06
2018-03-20T23:50:45.219Z,68.87
2018-03-20T23:51:55.460Z,68.68
2018-03-20T23:53:05.647Z,69.06
2018-03-20T23:54:15.778Z,68.77
2018-03-20T23:55:25.918Z,69.25
2018-03-20T23:56:36.074Z,69.25
2018-03-20T23:57:45.837Z,69.25
2018-03-20T23:58:55.971Z,69.06
